createdAt,value
2022-09-06T00:00:41.660Z,10.31
2022-09-06T00:01:43.928Z,10.31
2022-09-06T00:02:46.372Z,10.33
2022-09-06T00:03:50.979Z,10.36
2022-09-06T00:04:56.543Z,10.31
2022-09-06T00:05:58.701Z,10.17
2022-09-06T00:07:00.856Z,10.24
2022-09-06T00:08:05.715Z,10.24
2022-09-06T00:09:07.700Z,10.24
2022-09-06T00:10:11.196Z,10.23
2022-09-06T00:11:15.933Z,10.14
2022-09-06T00:12:19.454Z,10.06
2022-09-06T00:13:21.674Z,10.08
2022-09-06T00:14:24.106Z,9.94
2022-09-06T00:15:26.158Z,9.92
2022-09-06T00:16:30.504Z,9.87
2022-09-06T00:17:35.440Z,9.87
2022-09-06T00:18:37.910Z,9.79
2022-09-06T00:19:40.341Z,9.81
2022-09-06T00:20:42.519Z,9.84
2022-09-06T00:21:45.093Z,9.76
2022-09-06T00:22:47.163Z,9.76
2022-09-06T00:23:53.261Z,9.78
2022-09-06T00:24:55.690Z,9.80
2022-09-06T00:26:05.277Z,9.81
2022-09-06T00:27:09.468Z,9.74
2022-09-06T00:28:19.836Z,9.67
2022-09-06T00:29:21.914Z,9.68
2022-09-06T00:30:26.545Z,9.70
2022-09-06T00:31:29.803Z,9.66
2022-09-06T00:32:33.056Z,9.68
2022-09-06T00:33:37.653Z,9.57
2022-09-06T00:34:40.167Z,9.66
2022-09-06T00:35:42.280Z,9.65
2022-09-06T00:36:44.455Z,9.62
2022-09-06T00:37:46.957Z,9.66
2022-09-06T00:38:50.213Z,9.69
2022-09-06T00:39:52.331Z,9.62
2022-09-06T00:40:54.480Z,9.60
2022-09-06T00:41:57.898Z,9.64
2022-09-06T00:43:01.716Z,9.62
2022-09-06T00:44:04.298Z,9.67
2022-09-06T00:45:07.934Z,9.54
2022-09-06T00:46:14.557Z,9.59
2022-09-06T00:47:16.706Z,9.61
2022-09-06T00:48:21.374Z,9.56
2022-09-06T00:49:29.241Z,9.55
2022-09-06T00:50:32.871Z,9.55
2022-09-06T00:51:36.699Z,9.60
2022-09-06T00:52:40.262Z,9.64
2022-09-06T00:53:42.970Z,9.53
2022-09-06T00:54:45.817Z,9.53
2022-09-06T00:55:49.927Z,9.45
2022-09-06T00:56:55.565Z,9.51
2022-09-06T00:57:58.024Z,9.44
2022-09-06T00:59:03.532Z,9.49
2022-09-06T01:00:08.858Z,9.50
2022-09-06T01:01:11.027Z,9.54
2022-09-06T01:02:16.099Z,9.45
2022-09-06T01:03:22.974Z,9.40
2022-09-06T01:04:28.978Z,9.40
2022-09-06T01:05:45.400Z,9.43
2022-09-06T01:06:47.565Z,9.46
2022-09-06T01:08:16.109Z,9.40
2022-09-06T01:09:53.493Z,9.48
2022-09-06T01:10:58.525Z,9.46
2022-09-06T01:12:08.866Z,9.45
2022-09-06T01:13:48.241Z,9.45
2022-09-06T01:15:08.984Z,9.40
2022-09-06T01:16:37.767Z,9.51
2022-09-06T01:17:59.929Z,9.54
2022-09-06T01:19:23.482Z,9.53
2022-09-06T01:20:43.599Z,9.50
2022-09-06T01:22:23.902Z,9.56
2022-09-06T01:23:53.663Z,9.58
2022-09-06T01:25:10.987Z,9.60
2022-09-06T01:26:23.603Z,9.62
2022-09-06T01:27:46.361Z,9.67
2022-09-06T01:28:53.169Z,9.73
2022-09-06T01:30:13.081Z,9.66
2022-09-06T01:31:18.906Z,9.61
2022-09-06T01:32:29.111Z,9.61
2022-09-06T01:33:54.581Z,9.65
2022-09-06T01:35:12.810Z,9.66
2022-09-06T01:36:29.959Z,9.77
2022-09-06T01:37:32.789Z,9.82
2022-09-06T01:38:35.832Z,9.76
2022-09-06T01:39:40.612Z,9.82
2022-09-06T01:40:42.952Z,9.75
2022-09-06T01:41:45.107Z,9.72
2022-09-06T01:42:50.317Z,9.80
2022-09-06T01:43:54.587Z,9.84
2022-09-06T01:45:08.574Z,9.83
2022-09-06T01:46:27.621Z,9.79
2022-09-06T01:47:29.665Z,9.73
2022-09-06T01:48:39.426Z,9.69
2022-09-06T01:49:54.176Z,9.80
2022-09-06T01:51:35.712Z,9.76
2022-09-06T01:53:02.585Z,9.80
2022-09-06T01:54:34.703Z,9.78
2022-09-06T01:56:17.501Z,9.74
2022-09-06T01:57:42.021Z,9.70
2022-09-06T01:59:34.532Z,9.73
2022-09-06T02:01:09.572Z,9.71
2022-09-06T02:02:14.923Z,9.59
2022-09-06T02:03:32.870Z,9.63
2022-09-06T02:05:05.475Z,9.70
2022-09-06T02:06:13.301Z,9.68
2022-09-06T02:07:25.560Z,9.75
2022-09-06T02:08:44.788Z,9.62
2022-09-06T02:09:53.113Z,9.63
2022-09-06T02:11:04.466Z,9.55
2022-09-06T02:12:13.543Z,9.53
2022-09-06T02:13:19.481Z,9.49
2022-09-06T02:14:30.028Z,9.53
2022-09-06T02:15:39.771Z,9.54
2022-09-06T02:16:45.997Z,9.64
2022-09-06T02:17:56.039Z,9.63
2022-09-06T02:19:05.676Z,9.56
2022-09-06T02:20:16.344Z,9.58
2022-09-06T02:21:27.568Z,9.65
2022-09-06T02:22:33.671Z,9.62
2022-09-06T02:23:40.276Z,9.53
2022-09-06T02:24:44.919Z,9.51
2022-09-06T02:26:00.106Z,9.48
2022-09-06T02:27:02.233Z,9.45
2022-09-06T02:28:05.853Z,9.36
2022-09-06T02:29:08.139Z,9.44
2022-09-06T02:30:11.168Z,9.47
2022-09-06T02:31:29.309Z,9.44
2022-09-06T02:32:38.342Z,9.40
2022-09-06T02:33:41.528Z,9.37
2022-09-06T02:34:46.246Z,9.43
2022-09-06T02:35:51.721Z,9.31
2022-09-06T02:36:55.082Z,9.30
2022-09-06T02:37:57.338Z,9.28
2022-09-06T02:39:00.967Z,9.32
2022-09-06T02:40:03.655Z,9.20
2022-09-06T02:41:07.623Z,9.15
2022-09-06T02:42:11.747Z,9.23
2022-09-06T02:43:13.798Z,9.24
2022-09-06T02:44:17.143Z,9.21
2022-09-06T02:45:19.177Z,9.14
2022-09-06T02:46:21.414Z,9.15
2022-09-06T02:47:31.800Z,9.15
2022-09-06T02:48:33.932Z,9.04
2022-09-06T02:49:36.866Z,9.03
2022-09-06T02:50:38.984Z,8.96
2022-09-06T02:51:41.078Z,9.01
2022-09-06T02:52:43.379Z,8.96
2022-09-06T02:53:45.805Z,8.97
2022-09-06T02:54:47.904Z,8.91
2022-09-06T02:55:50.042Z,8.92
2022-09-06T02:56:52.564Z,8.94
2022-09-06T02:57:54.750Z,8.92
2022-09-06T02:58:57.049Z,8.95
2022-09-06T02:59:59.055Z,8.89
2022-09-06T03:01:01.612Z,8.89
2022-09-06T03:02:05.411Z,8.94
2022-09-06T03:03:07.957Z,8.92
2022-09-06T03:04:10.006Z,9.01
2022-09-06T03:05:12.211Z,9.07
2022-09-06T03:06:14.362Z,9.16
2022-09-06T03:07:16.630Z,9.15
2022-09-06T03:08:21.887Z,9.28
2022-09-06T03:09:25.236Z,9.21
2022-09-06T03:10:28.372Z,9.29
2022-09-06T03:11:30.542Z,9.34
2022-09-06T03:12:34.374Z,9.36
2022-09-06T03:13:36.515Z,9.39
2022-09-06T03:14:41.346Z,9.53
2022-09-06T03:15:44.151Z,9.53
2022-09-06T03:16:46.481Z,9.60
2022-09-06T03:17:48.626Z,9.64
2022-09-06T03:18:50.756Z,9.67
2022-09-06T03:19:53.570Z,9.69
2022-09-06T03:20:56.784Z,9.62
2022-09-06T03:21:59.197Z,9.65
2022-09-06T03:23:02.630Z,9.68
2022-09-06T03:24:05.545Z,9.72
2022-09-06T03:25:09.372Z,9.68
2022-09-06T03:26:11.693Z,9.77
2022-09-06T03:27:13.989Z,9.77
2022-09-06T03:28:23.151Z,9.75
2022-09-06T03:29:26.387Z,9.73
2022-09-06T03:30:30.302Z,9.65
2022-09-06T03:31:32.381Z,9.70
2022-09-06T03:32:36.120Z,9.75
2022-09-06T03:33:41.895Z,9.75
2022-09-06T03:34:44.036Z,9.71
2022-09-06T03:35:55.072Z,9.79
2022-09-06T03:36:58.817Z,9.74
2022-09-06T03:38:00.950Z,9.80
2022-09-06T03:39:02.968Z,9.79
2022-09-06T03:40:07.514Z,9.76
2022-09-06T03:41:09.740Z,9.84
2022-09-06T03:42:14.923Z,9.77
2022-09-06T03:43:20.483Z,9.83
2022-09-06T03:44:22.719Z,9.80
2022-09-06T03:45:25.212Z,9.89
2022-09-06T03:46:31.565Z,9.93
2022-09-06T03:47:33.951Z,10.01
2022-09-06T03:48:36.189Z,10.05
2022-09-06T03:49:38.225Z,9.91
2022-09-06T03:50:47.164Z,9.89
2022-09-06T03:51:49.156Z,9.96
2022-09-06T03:52:51.132Z,10.05
2022-09-06T03:53:53.286Z,10.02
2022-09-06T03:54:55.298Z,9.98
2022-09-06T03:56:00.726Z,10.00
2022-09-06T03:57:04.159Z,10.09
2022-09-06T03:58:06.476Z,10.05
2022-09-06T03:59:08.464Z,10.04
2022-09-06T04:00:11.168Z,9.97
2022-09-06T04:01:19.809Z,10.08
2022-09-06T04:02:22.202Z,9.93
2022-09-06T04:03:25.436Z,9.97
2022-09-06T04:04:27.478Z,10.07
2022-09-06T04:05:29.760Z,10.13
2022-09-06T04:06:32.270Z,10.13
2022-09-06T04:07:34.364Z,10.10
2022-09-06T04:08:37.464Z,10.11
2022-09-06T04:09:39.528Z,9.95
2022-09-06T04:10:42.813Z,9.98
2022-09-06T04:11:45.203Z,10.07
2022-09-06T04:12:47.696Z,10.01
2022-09-06T04:13:49.683Z,10.00
2022-09-06T04:14:51.788Z,10.01
2022-09-06T04:15:55.425Z,10.00
2022-09-06T04:16:58.151Z,10.20
2022-09-06T04:18:00.224Z,9.99
2022-09-06T04:19:04.276Z,10.07
2022-09-06T04:20:06.997Z,10.04
2022-09-06T04:21:10.254Z,9.90
2022-09-06T04:22:12.309Z,9.84
2022-09-06T04:23:14.634Z,9.95
2022-09-06T04:24:16.629Z,9.88
2022-09-06T04:25:20.187Z,10.07
2022-09-06T04:26:22.911Z,10.03
2022-09-06T04:27:27.343Z,10.11
2022-09-06T04:28:29.392Z,10.16
2022-09-06T04:29:31.518Z,10.30
2022-09-06T04:30:33.471Z,10.36
2022-09-06T04:31:35.711Z,10.34
2022-09-06T04:32:37.992Z,10.31
2022-09-06T04:33:41.035Z,10.39
2022-09-06T04:34:43.178Z,10.29
2022-09-06T04:35:50.068Z,10.47
2022-09-06T04:36:52.097Z,10.44
2022-09-06T04:37:54.306Z,10.43
2022-09-06T04:38:58.496Z,10.44
2022-09-06T04:40:00.722Z,10.62
2022-09-06T04:41:03.334Z,10.63
2022-09-06T04:42:05.616Z,10.63
2022-09-06T04:43:08.144Z,10.61
2022-09-06T04:44:10.470Z,10.60
2022-09-06T04:45:12.521Z,10.50
2022-09-06T04:46:25.211Z,10.61
2022-09-06T04:47:27.291Z,10.73
2022-09-06T04:48:29.339Z,10.73
2022-09-06T04:49:31.369Z,10.80
2022-09-06T04:50:33.662Z,10.69
2022-09-06T04:51:42.339Z,10.71
2022-09-06T04:52:45.560Z,10.75
2022-09-06T04:53:48.314Z,10.89
2022-09-06T04:54:50.417Z,10.82
2022-09-06T04:55:52.595Z,10.83
2022-09-06T04:56:54.643Z,11.02
2022-09-06T04:57:58.571Z,11.12
2022-09-06T04:59:00.708Z,11.19
2022-09-06T05:00:04.069Z,11.16
2022-09-06T05:01:07.101Z,11.10
2022-09-06T05:02:09.346Z,11.17
2022-09-06T05:03:11.467Z,11.24
2022-09-06T05:04:15.183Z,11.23
2022-09-06T05:05:17.316Z,11.16
2022-09-06T05:06:22.595Z,11.34
2022-09-06T05:07:25.387Z,11.47
2022-09-06T05:08:27.487Z,11.29
2022-09-06T05:09:29.859Z,11.46
2022-09-06T05:10:31.892Z,11.48
2022-09-06T05:11:36.908Z,11.71
2022-09-06T05:12:43.629Z,11.54
2022-09-06T05:13:47.517Z,11.62
2022-09-06T05:14:51.883Z,11.58
2022-09-06T05:15:56.619Z,11.59
2022-09-06T05:16:58.692Z,11.43
2022-09-06T05:18:06.953Z,11.51
2022-09-06T05:19:10.207Z,11.67
2022-09-06T05:20:15.540Z,11.92
2022-09-06T05:21:17.936Z,12.25
2022-09-06T05:22:20.042Z,12.57
2022-09-06T05:23:22.712Z,12.22
2022-09-06T05:24:24.991Z,12.21
2022-09-06T05:25:27.217Z,12.25
2022-09-06T05:26:29.333Z,12.27
2022-09-06T05:27:31.359Z,12.44
2022-09-06T05:28:33.853Z,12.53
2022-09-06T05:29:35.882Z,12.57
2022-09-06T05:30:38.053Z,12.27
2022-09-06T05:31:40.174Z,11.95
2022-09-06T05:32:42.288Z,11.86
2022-09-06T05:33:44.738Z,11.82
2022-09-06T05:34:49.797Z,12.03
2022-09-06T05:35:52.139Z,11.89
2022-09-06T05:36:57.242Z,12.18
2022-09-06T05:37:59.481Z,11.92
2022-09-06T05:39:02.105Z,11.99
2022-09-06T05:40:04.272Z,11.61
2022-09-06T05:41:06.508Z,11.71
2022-09-06T05:42:08.758Z,11.47
2022-09-06T05:43:11.034Z,11.69
2022-09-06T05:44:13.607Z,11.69
2022-09-06T05:45:15.973Z,11.47
2022-09-06T05:46:18.131Z,11.61
2022-09-06T05:47:20.345Z,11.47
2022-09-06T05:48:24.087Z,11.60
2022-09-06T05:49:26.411Z,11.50
2022-09-06T05:50:28.490Z,11.55
2022-09-06T05:51:31.557Z,11.51
2022-09-06T05:52:35.498Z,11.63
2022-09-06T05:53:43.701Z,11.63
2022-09-06T05:54:45.754Z,11.48
2022-09-06T05:55:49.507Z,11.45
2022-09-06T05:56:51.542Z,11.52
2022-09-06T05:57:53.724Z,11.63
2022-09-06T05:58:55.843Z,11.36
2022-09-06T05:59:58.207Z,11.59
2022-09-06T06:01:20.547Z,11.63
2022-09-06T06:02:23.432Z,11.39
2022-09-06T06:03:25.458Z,11.37
2022-09-06T06:04:27.897Z,11.49
2022-09-06T06:05:33.301Z,11.47
2022-09-06T06:06:35.395Z,11.70
2022-09-06T06:07:38.325Z,11.78
2022-09-06T06:08:40.488Z,11.58
2022-09-06T06:09:42.597Z,11.78
2022-09-06T06:10:44.738Z,11.69
2022-09-06T06:11:46.863Z,11.79
2022-09-06T06:12:49.926Z,11.68
2022-09-06T06:13:52.703Z,11.45
2022-09-06T06:14:54.968Z,11.38
2022-09-06T06:15:57.183Z,11.49
2022-09-06T06:16:59.419Z,11.65
2022-09-06T06:18:01.629Z,11.77
2022-09-06T06:19:03.903Z,11.75
2022-09-06T06:20:06.384Z,11.79
2022-09-06T06:21:11.019Z,11.91
2022-09-06T06:22:13.090Z,12.01
2022-09-06T06:23:15.944Z,11.99
2022-09-06T06:24:18.689Z,12.16
2022-09-06T06:25:23.314Z,12.15
2022-09-06T06:26:27.123Z,11.96
2022-09-06T06:27:29.246Z,12.18
2022-09-06T06:28:32.223Z,12.29
2022-09-06T06:29:34.298Z,12.38
2022-09-06T06:30:37.350Z,12.55
2022-09-06T06:31:39.567Z,12.75
2022-09-06T06:32:41.640Z,13.19
2022-09-06T06:33:44.474Z,13.49
2022-09-06T06:34:46.697Z,13.54
2022-09-06T06:36:01.770Z,13.35
2022-09-06T06:37:08.273Z,13.44
2022-09-06T06:38:10.587Z,13.32
2022-09-06T06:39:12.669Z,12.99
2022-09-06T06:40:14.966Z,12.92
2022-09-06T06:41:26.473Z,12.88
2022-09-06T06:42:28.565Z,13.06
2022-09-06T06:43:36.589Z,12.70
2022-09-06T06:44:38.992Z,12.95
2022-09-06T06:45:41.060Z,12.72
2022-09-06T06:46:44.529Z,12.78
2022-09-06T06:47:50.265Z,12.60
2022-09-06T06:48:57.164Z,12.27
2022-09-06T06:49:59.397Z,12.33
2022-09-06T06:51:01.497Z,12.20
2022-09-06T06:52:06.407Z,12.09
2022-09-06T06:53:08.613Z,11.81
2022-09-06T06:54:10.698Z,12.02
2022-09-06T06:55:12.761Z,11.99
2022-09-06T06:56:20.382Z,11.95
2022-09-06T06:57:22.614Z,12.02
2022-09-06T06:58:25.426Z,12.06
2022-09-06T06:59:32.683Z,11.89
2022-09-06T07:00:34.802Z,12.17
2022-09-06T07:01:37.680Z,12.70
2022-09-06T07:02:39.837Z,13.45
2022-09-06T07:03:41.939Z,13.85
2022-09-06T07:04:44.754Z,14.11
2022-09-06T07:08:32.098Z,16.27
2022-09-06T07:10:59.560Z,16.72
2022-09-06T07:12:01.787Z,17.60
2022-09-06T07:13:04.220Z,18.51
2022-09-06T07:14:06.308Z,18.50
2022-09-06T07:15:09.009Z,18.90
2022-09-06T07:16:23.345Z,17.58
2022-09-06T07:17:25.615Z,17.84
2022-09-06T07:18:27.690Z,18.13
2022-09-06T07:22:14.093Z,15.82
2022-09-06T07:24:39.674Z,15.72
2022-09-06T07:25:41.713Z,15.74
2022-09-06T07:28:08.778Z,16.33
2022-09-06T07:29:11.895Z,16.71
2022-09-06T07:30:14.483Z,17.08
2022-09-06T07:32:38.912Z,18.67
2022-09-06T07:33:41.260Z,18.64
2022-09-06T07:34:43.330Z,19.93
2022-09-06T07:35:58.505Z,20.13
2022-09-06T07:37:00.917Z,20.00
2022-09-06T07:38:03.052Z,20.04
2022-09-06T07:39:05.167Z,19.79
2022-09-06T07:40:08.007Z,19.84
2022-09-06T07:41:11.154Z,19.68
2022-09-06T07:42:16.391Z,21.02
2022-09-06T07:43:18.595Z,20.00
2022-09-06T07:44:20.742Z,20.11
2022-09-06T07:45:22.798Z,19.63
2022-09-06T07:46:25.723Z,20.23
2022-09-06T07:48:50.065Z,19.56
2022-09-06T07:51:24.186Z,18.03
2022-09-06T07:53:58.026Z,17.53
2022-09-06T07:55:10.204Z,16.90
2022-09-06T07:56:12.938Z,16.87
2022-09-06T07:57:15.123Z,16.51
2022-09-06T07:58:17.565Z,16.32
2022-09-06T07:59:19.648Z,15.66
2022-09-06T08:00:21.851Z,15.79
2022-09-06T08:01:30.311Z,15.08
2022-09-06T08:02:32.611Z,14.47
2022-09-06T08:03:34.625Z,14.82
2022-09-06T08:04:36.691Z,14.63
2022-09-06T08:09:48.380Z,14.23
2022-09-06T08:10:51.680Z,14.20
2022-09-06T08:11:54.208Z,14.69
2022-09-06T08:12:56.312Z,14.66
2022-09-06T08:14:00.409Z,14.75
2022-09-06T08:15:02.662Z,14.68
2022-09-06T08:16:08.710Z,14.77
2022-09-06T08:17:10.973Z,15.17
2022-09-06T08:18:13.220Z,15.10
2022-09-06T08:19:15.770Z,14.91
2022-09-06T08:20:18.168Z,14.97
2022-09-06T08:21:23.727Z,14.73
2022-09-06T08:22:26.983Z,14.69
2022-09-06T08:23:31.835Z,14.36
2022-09-06T08:24:36.002Z,14.39
2022-09-06T08:25:38.464Z,14.19
2022-09-06T08:26:43.530Z,13.89
2022-09-06T08:27:45.742Z,13.81
2022-09-06T08:28:48.183Z,13.86
2022-09-06T08:29:53.175Z,13.70
2022-09-06T08:30:55.492Z,13.47
2022-09-06T08:31:58.110Z,13.17
2022-09-06T08:33:01.435Z,13.28
2022-09-06T08:34:06.568Z,13.20
2022-09-06T08:35:09.448Z,13.47
2022-09-06T08:36:12.228Z,13.44
2022-09-06T08:37:14.590Z,13.73
2022-09-06T08:38:16.620Z,13.95
2022-09-06T08:39:19.319Z,14.18
2022-09-06T08:40:24.264Z,13.70
2022-09-06T08:41:55.551Z,13.60
2022-09-06T08:43:00.640Z,13.84
2022-09-06T08:45:35.296Z,13.80
2022-09-06T08:47:08.812Z,13.97
2022-09-06T08:48:11.080Z,14.42
2022-09-06T08:49:13.744Z,14.11
2022-09-06T08:50:16.186Z,14.06
2022-09-06T08:51:39.958Z,13.95
2022-09-06T08:54:26.037Z,14.12
2022-09-06T08:55:31.087Z,14.23
2022-09-06T08:56:42.849Z,14.10
2022-09-06T08:58:03.270Z,14.14
2022-09-06T08:59:11.785Z,14.32
2022-09-06T09:00:15.212Z,14.33
2022-09-06T09:01:27.599Z,15.23
2022-09-06T09:02:47.746Z,15.46
2022-09-06T09:03:50.139Z,15.68
2022-09-06T09:05:04.958Z,15.15
2022-09-06T09:06:10.379Z,15.32
2022-09-06T09:07:41.438Z,14.83
2022-09-06T09:09:08.115Z,15.09
2022-09-06T09:10:43.675Z,14.68
2022-09-06T09:11:51.723Z,14.34
2022-09-06T09:12:54.134Z,14.42
2022-09-06T09:13:59.996Z,14.41
2022-09-06T09:15:14.521Z,14.51
2022-09-06T09:16:35.035Z,14.76
2022-09-06T09:17:37.685Z,15.08
2022-09-06T09:18:43.959Z,15.15
2022-09-06T09:19:46.405Z,15.03
2022-09-06T09:20:48.542Z,15.14
2022-09-06T09:21:50.807Z,15.33
2022-09-06T09:22:52.900Z,15.21
2022-09-06T09:23:57.609Z,14.80
2022-09-06T09:25:01.683Z,14.86
2022-09-06T09:26:07.556Z,14.90
2022-09-06T09:27:12.865Z,14.97
2022-09-06T09:28:19.245Z,14.85
2022-09-06T09:29:26.720Z,14.77
2022-09-06T09:30:52.883Z,14.88
2022-09-06T09:31:56.363Z,14.60
2022-09-06T09:32:58.595Z,14.59
2022-09-06T09:34:04.827Z,14.56
2022-09-06T09:35:32.707Z,14.89
2022-09-06T09:36:34.924Z,14.51
2022-09-06T09:37:46.620Z,14.51
2022-09-06T09:38:52.149Z,14.36
2022-09-06T09:39:55.909Z,14.50
2022-09-06T09:41:00.105Z,14.49
2022-09-06T09:42:05.268Z,14.50
2022-09-06T09:43:27.516Z,14.47
2022-09-06T09:44:30.994Z,14.70
2022-09-06T09:45:33.011Z,14.56
2022-09-06T09:46:40.142Z,14.50
2022-09-06T09:47:43.262Z,14.73
2022-09-06T09:49:10.790Z,14.65
2022-09-06T09:50:30.450Z,14.40
2022-09-06T09:51:41.164Z,14.22
2022-09-06T09:52:45.806Z,14.37
2022-09-06T09:54:05.046Z,14.22
2022-09-06T09:55:11.869Z,14.20
2022-09-06T09:56:16.924Z,14.13
2022-09-06T09:57:21.987Z,14.19
2022-09-06T09:58:36.529Z,13.91
2022-09-06T09:59:44.578Z,13.98
2022-09-06T10:00:46.742Z,14.04
2022-09-06T10:01:49.701Z,13.93
2022-09-06T10:02:51.757Z,13.96
2022-09-06T10:05:24.894Z,13.72
2022-09-06T10:07:55.451Z,13.75
2022-09-06T10:08:58.104Z,13.95
2022-09-06T10:10:05.108Z,14.00
2022-09-06T10:11:07.377Z,14.12
2022-09-06T10:12:16.717Z,14.13
2022-09-06T10:13:34.401Z,14.37
2022-09-06T10:14:49.567Z,14.25
2022-09-06T10:15:53.812Z,14.21
2022-09-06T10:16:57.271Z,13.96
2022-09-06T10:17:59.831Z,13.91
2022-09-06T10:19:24.337Z,13.41
2022-09-06T10:20:46.138Z,13.40
2022-09-06T10:21:51.222Z,13.08
2022-09-06T10:22:53.422Z,13.08
2022-09-06T10:25:49.565Z,12.82
2022-09-06T10:26:55.792Z,13.04
2022-09-06T10:28:24.183Z,13.05
2022-09-06T10:29:45.782Z,12.92
2022-09-06T10:31:22.422Z,13.10
2022-09-06T10:32:48.363Z,13.25
2022-09-06T10:34:19.892Z,13.16
2022-09-06T10:35:28.288Z,13.38
2022-09-06T10:36:40.760Z,13.43
2022-09-06T10:38:05.511Z,13.90
2022-09-06T10:39:43.019Z,13.75
2022-09-06T10:41:12.038Z,13.60
2022-09-06T10:42:32.764Z,13.53
2022-09-06T10:44:13.801Z,13.62
2022-09-06T10:45:54.173Z,13.54
2022-09-06T10:47:09.153Z,13.58
2022-09-06T10:48:37.183Z,13.51
2022-09-06T10:49:50.920Z,13.44
2022-09-06T10:50:57.651Z,13.25
2022-09-06T10:52:02.792Z,13.50
2022-09-06T10:53:13.731Z,13.42
2022-09-06T10:54:23.635Z,13.05
2022-09-06T10:55:25.901Z,13.36
2022-09-06T10:57:02.591Z,13.64
2022-09-06T10:58:22.915Z,13.61
2022-09-06T11:00:47.530Z,14.00
2022-09-06T11:01:58.886Z,14.21
2022-09-06T11:06:17.328Z,14.24
2022-09-06T11:07:29.512Z,14.18
2022-09-06T11:08:58.246Z,14.15
2022-09-06T11:10:22.453Z,14.25
2022-09-06T11:11:52.236Z,14.39
2022-09-06T11:13:11.284Z,14.26
2022-09-06T11:14:19.115Z,14.06
2022-09-06T11:15:25.028Z,14.12
2022-09-06T11:16:42.203Z,14.35
2022-09-06T11:18:01.175Z,14.07
2022-09-06T11:19:37.167Z,13.93
2022-09-06T11:20:50.722Z,13.88
2022-09-06T11:21:57.503Z,13.78
2022-09-06T11:23:02.588Z,13.82
2022-09-06T11:24:13.555Z,13.48
2022-09-06T11:25:37.207Z,13.61
2022-09-06T11:27:01.685Z,13.51
2022-09-06T11:28:10.444Z,13.61
2022-09-06T11:29:25.151Z,13.68
2022-09-06T11:30:29.926Z,13.74
2022-09-06T11:33:31.276Z,13.91
2022-09-06T11:34:35.621Z,13.48
2022-09-06T11:35:40.291Z,13.36
2022-09-06T11:36:56.096Z,13.53
2022-09-06T11:38:02.983Z,13.52
2022-09-06T11:39:08.099Z,13.65
2022-09-06T11:40:27.345Z,13.80
2022-09-06T11:41:36.296Z,13.48
2022-09-06T11:42:46.133Z,13.60
2022-09-06T11:43:50.629Z,13.64
2022-09-06T11:44:54.380Z,13.63
2022-09-06T11:45:56.599Z,13.52
2022-09-06T11:46:59.712Z,13.43
2022-09-06T11:48:24.575Z,13.25
2022-09-06T11:49:31.263Z,13.08
2022-09-06T11:50:59.611Z,13.07
2022-09-06T11:52:03.741Z,12.92
2022-09-06T11:53:18.969Z,13.23
2022-09-06T11:54:23.650Z,13.06
2022-09-06T11:55:40.220Z,12.96
2022-09-06T11:56:47.118Z,13.20
2022-09-06T11:57:55.784Z,12.97
2022-09-06T11:59:16.237Z,12.89
2022-09-06T12:00:24.617Z,13.10
2022-09-06T12:01:26.564Z,13.16
2022-09-06T12:02:36.485Z,13.30
2022-09-06T12:04:10.019Z,13.18
2022-09-06T12:05:19.044Z,13.27
2022-09-06T12:06:33.496Z,13.27
2022-09-06T12:07:38.114Z,13.18
2022-09-06T12:08:41.283Z,13.21
2022-09-06T12:09:44.333Z,13.33
2022-09-06T12:10:55.586Z,13.41
2022-09-06T12:11:58.764Z,13.46
2022-09-06T12:13:01.431Z,13.40
2022-09-06T12:14:28.483Z,13.31
2022-09-06T12:15:44.500Z,13.35
2022-09-06T12:17:05.247Z,13.48
2022-09-06T12:18:08.749Z,13.29
2022-09-06T12:19:49.327Z,13.07
2022-09-06T12:20:56.833Z,13.24
2022-09-06T12:21:58.951Z,12.95
2022-09-06T12:23:00.999Z,12.95
2022-09-06T12:24:05.589Z,12.87
2022-09-06T12:25:26.607Z,13.00
2022-09-06T12:27:07.158Z,12.88
2022-09-06T12:28:21.361Z,13.16
2022-09-06T12:29:28.603Z,13.11
2022-09-06T12:30:42.320Z,13.19
2022-09-06T12:31:52.406Z,13.34
2022-09-06T12:32:54.615Z,13.51
2022-09-06T12:34:05.701Z,13.46
2022-09-06T12:36:48.997Z,13.33
2022-09-06T12:37:55.660Z,13.48
2022-09-06T12:39:09.124Z,13.53
2022-09-06T12:40:12.230Z,13.66
2022-09-06T12:41:16.920Z,13.61
2022-09-06T12:42:22.220Z,13.34
2022-09-06T12:43:24.471Z,13.40
2022-09-06T12:44:29.220Z,13.32
2022-09-06T12:45:31.995Z,13.11
2022-09-06T12:46:35.329Z,13.25
2022-09-06T12:47:40.273Z,13.30
2022-09-06T12:48:44.641Z,13.20
2022-09-06T12:49:46.707Z,13.17
2022-09-06T12:51:02.565Z,13.21
2022-09-06T12:52:19.310Z,13.16
2022-09-06T12:53:25.153Z,13.09
2022-09-06T12:54:29.044Z,13.18
2022-09-06T12:55:33.952Z,13.10
2022-09-06T12:56:38.143Z,13.18
2022-09-06T12:57:47.740Z,13.25
2022-09-06T12:58:49.889Z,13.32
2022-09-06T12:59:57.045Z,13.26
2022-09-06T13:01:23.011Z,13.25
2022-09-06T13:02:41.375Z,13.20
2022-09-06T13:04:16.530Z,13.26
2022-09-06T13:05:19.118Z,13.28
2022-09-06T13:06:27.289Z,13.24
2022-09-06T13:07:31.800Z,13.29
2022-09-06T13:08:47.511Z,13.08
2022-09-06T13:09:54.189Z,13.22
2022-09-06T13:10:57.272Z,13.21
2022-09-06T13:12:08.361Z,13.19
2022-09-06T13:13:13.139Z,13.24
2022-09-06T13:14:24.888Z,13.26
2022-09-06T13:15:29.337Z,13.51
2022-09-06T13:16:37.885Z,13.50
2022-09-06T13:17:41.078Z,13.47
2022-09-06T13:18:46.660Z,13.52
2022-09-06T13:19:51.057Z,13.38
2022-09-06T13:21:05.247Z,13.33
2022-09-06T13:22:11.323Z,13.29
2022-09-06T13:23:20.907Z,13.27
2022-09-06T13:24:46.594Z,13.32
2022-09-06T13:25:51.852Z,13.18
2022-09-06T13:26:55.096Z,13.22
2022-09-06T13:27:58.394Z,13.28
2022-09-06T13:29:30.956Z,13.21
2022-09-06T13:30:42.784Z,13.17
2022-09-06T13:31:47.760Z,13.18
2022-09-06T13:32:52.376Z,13.01
2022-09-06T13:33:59.295Z,12.98
2022-09-06T13:35:01.756Z,12.94
2022-09-06T13:36:19.819Z,12.83
2022-09-06T13:37:21.991Z,12.95
2022-09-06T13:38:41.128Z,12.74
2022-09-06T13:39:46.671Z,12.76
2022-09-06T13:41:11.885Z,13.01
2022-09-06T13:42:33.360Z,12.87
2022-09-06T13:43:46.312Z,12.96
2022-09-06T13:44:48.378Z,12.98
2022-09-06T13:46:06.472Z,13.00
2022-09-06T13:47:08.743Z,13.02
2022-09-06T13:48:28.445Z,13.17
2022-09-06T13:49:32.669Z,13.20
2022-09-06T13:50:35.176Z,13.12
2022-09-06T13:51:39.551Z,13.19
2022-09-06T13:52:41.711Z,13.22
2022-09-06T13:53:43.868Z,13.36
2022-09-06T13:54:46.012Z,13.37
2022-09-06T13:55:48.016Z,13.44
2022-09-06T13:56:50.808Z,13.36
2022-09-06T13:57:52.815Z,13.42
2022-09-06T13:58:54.958Z,13.39
2022-09-06T13:59:58.527Z,13.48
2022-09-06T14:01:01.124Z,13.56
2022-09-06T14:02:10.150Z,13.61
2022-09-06T14:03:14.904Z,13.63
2022-09-06T14:04:21.633Z,13.58
2022-09-06T14:05:23.823Z,13.37
2022-09-06T14:06:25.988Z,13.40
2022-09-06T14:07:28.098Z,13.40
2022-09-06T14:08:49.255Z,13.06
2022-09-06T14:09:56.733Z,13.09
2022-09-06T14:10:58.920Z,13.04
2022-09-06T14:12:33.617Z,13.04
2022-09-06T14:13:35.773Z,13.19
2022-09-06T14:14:38.113Z,13.16
2022-09-06T14:15:40.752Z,13.05
2022-09-06T14:16:42.945Z,13.00
2022-09-06T14:17:46.887Z,13.07
2022-09-06T14:18:50.019Z,13.09
2022-09-06T14:19:52.132Z,13.04
2022-09-06T14:20:57.603Z,12.95
2022-09-06T14:21:59.706Z,12.96
2022-09-06T14:23:01.857Z,13.08
2022-09-06T14:24:04.862Z,13.11
2022-09-06T14:25:07.517Z,13.15
2022-09-06T14:26:10.199Z,13.04
2022-09-06T14:27:12.440Z,13.05
2022-09-06T14:28:15.079Z,12.97
2022-09-06T14:29:17.503Z,13.04
2022-09-06T14:30:19.629Z,13.00
2022-09-06T14:31:26.107Z,12.90
2022-09-06T14:32:28.476Z,12.86
2022-09-06T14:33:31.391Z,12.87
2022-09-06T14:34:33.487Z,12.82
2022-09-06T14:35:35.598Z,12.57
2022-09-06T14:36:37.773Z,12.74
2022-09-06T14:37:40.081Z,12.72
2022-09-06T14:38:44.366Z,12.58
2022-09-06T14:40:23.891Z,12.46
2022-09-06T14:41:28.513Z,12.63
2022-09-06T14:42:30.839Z,12.67
2022-09-06T14:43:33.501Z,12.50
2022-09-06T14:44:35.895Z,12.36
2022-09-06T14:45:38.238Z,12.42
2022-09-06T14:46:40.538Z,12.41
2022-09-06T14:47:42.709Z,12.43
2022-09-06T14:48:44.996Z,12.39
2022-09-06T14:49:47.239Z,12.39
2022-09-06T14:50:49.813Z,12.34
2022-09-06T14:51:53.799Z,12.21
2022-09-06T14:52:58.911Z,12.24
2022-09-06T14:54:07.730Z,12.40
2022-09-06T14:55:10.134Z,12.33
2022-09-06T14:56:13.221Z,12.40
2022-09-06T14:57:15.879Z,12.48
2022-09-06T14:58:18.074Z,12.34
2022-09-06T14:59:20.240Z,12.29
2022-09-06T15:00:22.911Z,12.33
2022-09-06T15:01:28.820Z,12.43
2022-09-06T15:02:31.089Z,12.47
2022-09-06T15:03:36.064Z,12.46
2022-09-06T15:04:38.388Z,12.47
2022-09-06T15:05:44.691Z,12.52
2022-09-06T15:06:47.968Z,12.40
2022-09-06T15:07:51.106Z,12.49